sensor_id;sensor_type;location;lat;lon;timestamp;P1;durP1;ratioP1;P2;durP2;ratioP2
35380;SDS011;21486;51.916;8.378;2024-01-10T00:01:42;15.43;;;7.22;;
35380;SDS011;21486;51.916;8.378;2024-01-10T00:04:08;10.35;;;6.63;;
35380;SDS011;21486;51.916;8.378;2024-01-10T00:06:33;16.63;;;7.88;;
35380;SDS011;21486;51.916;8.378;2024-01-10T00:08:59;16.35;;;7.70;;
35380;SDS011;21486;51.916;8.378;2024-01-10T00:11:24;15.43;;;7.63;;
35380;SDS011;21486;51.916;8.378;2024-01-10T00:13:50;17.02;;;7.35;;
35380;SDS011;21486;51.916;8.378;2024-01-10T00:16:15;23.83;;;7.88;;
35380;SDS011;21486;51.916;8.378;2024-01-10T00:18:41;12.48;;;7.13;;
35380;SDS011;21486;51.916;8.378;2024-01-10T00:21:07;17.33;;;7.85;;
35380;SDS011;21486;51.916;8.378;2024-01-10T00:23:32;18.90;;;7.78;;
35380;SDS011;21486;51.916;8.378;2024-01-10T00:25:58;16.70;;;7.32;;
35380;SDS011;21486;51.916;8.378;2024-01-10T00:28:24;18.60;;;7.82;;
35380;SDS011;21486;51.916;8.378;2024-01-10T00:30:50;23.02;;;8.02;;
35380;SDS011;21486;51.916;8.378;2024-01-10T00:33:15;18.90;;;7.60;;
35380;SDS011;21486;51.916;8.378;2024-01-10T00:35:41;17.15;;;7.22;;
35380;SDS011;21486;51.916;8.378;2024-01-10T00:38:07;17.50;;;8.27;;
35380;SDS011;21486;51.916;8.378;2024-01-10T00:40:32;17.98;;;7.60;;
35380;SDS011;21486;51.916;8.378;2024-01-10T00:42:58;14.38;;;7.68;;
35380;SDS011;21486;51.916;8.378;2024-01-10T00:45:23;18.95;;;7.47;;
35380;SDS011;21486;51.916;8.378;2024-01-10T00:47:49;17.17;;;8.43;;
35380;SDS011;21486;51.916;8.378;2024-01-10T00:50:14;20.90;;;9.27;;
35380;SDS011;21486;51.916;8.378;2024-01-10T00:52:40;13.82;;;7.07;;
35380;SDS011;21486;51.916;8.378;2024-01-10T00:55:05;15.32;;;8.05;;
35380;SDS011;21486;51.916;8.378;2024-01-10T00:57:31;16.55;;;8.05;;
35380;SDS011;21486;51.916;8.378;2024-01-10T00:59:57;20.85;;;8.27;;
35380;SDS011;21486;51.916;8.378;2024-01-10T01:02:22;15.60;;;8.90;;
35380;SDS011;21486;51.916;8.378;2024-01-10T01:04:48;23.65;;;8.82;;
35380;SDS011;21486;51.916;8.378;2024-01-10T01:07:13;13.07;;;7.60;;
35380;SDS011;21486;51.916;8.378;2024-01-10T01:09:39;21.20;;;7.57;;
35380;SDS011;21486;51.916;8.378;2024-01-10T01:12:04;14.63;;;7.35;;
35380;SDS011;21486;51.916;8.378;2024-01-10T01:14:30;16.90;;;8.60;;
35380;SDS011;21486;51.916;8.378;2024-01-10T01:16:55;19.70;;;8.55;;
35380;SDS011;21486;51.916;8.378;2024-01-10T01:19:21;14.65;;;8.35;;
35380;SDS011;21486;51.916;8.378;2024-01-10T01:21:47;24.42;;;9.25;;
35380;SDS011;21486;51.916;8.378;2024-01-10T01:24:12;17.33;;;8.40;;
35380;SDS011;21486;51.916;8.378;2024-01-10T01:26:38;18.77;;;8.32;;
35380;SDS011;21486;51.916;8.378;2024-01-10T01:29:03;22.25;;;9.50;;
35380;SDS011;21486;51.916;8.378;2024-01-10T01:33:02;17.02;;;8.73;;
35380;SDS011;21486;51.916;8.378;2024-01-10T01:35:29;18.08;;;8.18;;
35380;SDS011;21486;51.916;8.378;2024-01-10T01:37:55;25.67;;;8.52;;
35380;SDS011;21486;51.916;8.378;2024-01-10T01:40:20;23.13;;;9.45;;
35380;SDS011;21486;51.916;8.378;2024-01-10T01:42:46;21.27;;;8.80;;
35380;SDS011;21486;51.916;8.378;2024-01-10T01:45:12;20.65;;;8.38;;
35380;SDS011;21486;51.916;8.378;2024-01-10T01:47:38;14.23;;;7.63;;
35380;SDS011;21486;51.916;8.378;2024-01-10T01:50:05;17.90;;;9.45;;
35380;SDS011;21486;51.916;8.378;2024-01-10T01:52:31;19.42;;;8.65;;
35380;SDS011;21486;51.916;8.378;2024-01-10T01:54:59;19.20;;;9.18;;
35380;SDS011;21486;51.916;8.378;2024-01-10T01:57:25;18.95;;;9.55;;
35380;SDS011;21486;51.916;8.378;2024-01-10T01:59:51;17.58;;;7.93;;
35380;SDS011;21486;51.916;8.378;2024-01-10T02:02:16;14.07;;;8.75;;
35380;SDS011;21486;51.916;8.378;2024-01-10T02:04:42;22.17;;;8.20;;
35380;SDS011;21486;51.916;8.378;2024-01-10T02:07:10;19.98;;;8.45;;
35380;SDS011;21486;51.916;8.378;2024-01-10T02:09:35;21.85;;;8.93;;
35380;SDS011;21486;51.916;8.378;2024-01-10T02:12:01;18.38;;;9.45;;
35380;SDS011;21486;51.916;8.378;2024-01-10T02:14:28;26.75;;;9.90;;
35380;SDS011;21486;51.916;8.378;2024-01-10T02:16:54;27.95;;;8.93;;
35380;SDS011;21486;51.916;8.378;2024-01-10T02:19:20;19.45;;;9.60;;
35380;SDS011;21486;51.916;8.378;2024-01-10T02:21:47;17.15;;;8.88;;
35380;SDS011;21486;51.916;8.378;2024-01-10T02:24:13;24.10;;;9.38;;
35380;SDS011;21486;51.916;8.378;2024-01-10T02:26:39;22.25;;;9.70;;
35380;SDS011;21486;51.916;8.378;2024-01-10T02:29:04;19.63;;;9.73;;
35380;SDS011;21486;51.916;8.378;2024-01-10T02:31:30;27.45;;;10.43;;
35380;SDS011;21486;51.916;8.378;2024-01-10T02:33:55;18.10;;;9.43;;
35380;SDS011;21486;51.916;8.378;2024-01-10T02:36:21;18.30;;;8.90;;
35380;SDS011;21486;51.916;8.378;2024-01-10T02:38:46;22.90;;;9.55;;
35380;SDS011;21486;51.916;8.378;2024-01-10T02:41:12;19.25;;;8.38;;
35380;SDS011;21486;51.916;8.378;2024-01-10T02:43:38;28.25;;;9.55;;
35380;SDS011;21486;51.916;8.378;2024-01-10T02:46:04;20.98;;;8.80;;
35380;SDS011;21486;51.916;8.378;2024-01-10T02:48:29;25.42;;;9.70;;
35380;SDS011;21486;51.916;8.378;2024-01-10T02:50:55;23.50;;;9.10;;
35380;SDS011;21486;51.916;8.378;2024-01-10T02:53:21;19.65;;;9.15;;
35380;SDS011;21486;51.916;8.378;2024-01-10T02:55:46;23.20;;;9.52;;
35380;SDS011;21486;51.916;8.378;2024-01-10T02:58:13;21.65;;;9.73;;
35380;SDS011;21486;51.916;8.378;2024-01-10T03:00:38;20.75;;;10.00;;
35380;SDS011;21486;51.916;8.378;2024-01-10T03:03:04;25.15;;;10.05;;
35380;SDS011;21486;51.916;8.378;2024-01-10T03:05:29;24.40;;;9.32;;
35380;SDS011;21486;51.916;8.378;2024-01-10T03:07:55;20.40;;;9.27;;
35380;SDS011;21486;51.916;8.378;2024-01-10T03:10:20;23.23;;;10.45;;
35380;SDS011;21486;51.916;8.378;2024-01-10T03:12:46;32.65;;;10.55;;
35380;SDS011;21486;51.916;8.378;2024-01-10T03:15:11;26.45;;;11.43;;
35380;SDS011;21486;51.916;8.378;2024-01-10T03:17:37;20.10;;;9.25;;
35380;SDS011;21486;51.916;8.378;2024-01-10T03:20:03;23.00;;;10.40;;
35380;SDS011;21486;51.916;8.378;2024-01-10T03:22:30;23.73;;;9.82;;
35380;SDS011;21486;51.916;8.378;2024-01-10T03:24:57;21.50;;;10.35;;
35380;SDS011;21486;51.916;8.378;2024-01-10T03:27:22;19.73;;;9.02;;
35380;SDS011;21486;51.916;8.378;2024-01-10T03:29:48;22.00;;;9.38;;
35380;SDS011;21486;51.916;8.378;2024-01-10T03:32:13;20.20;;;9.32;;
35380;SDS011;21486;51.916;8.378;2024-01-10T03:34:40;25.35;;;9.93;;
35380;SDS011;21486;51.916;8.378;2024-01-10T03:37:06;22.67;;;9.75;;
35380;SDS011;21486;51.916;8.378;2024-01-10T03:39:32;21.75;;;9.98;;
35380;SDS011;21486;51.916;8.378;2024-01-10T03:41:57;19.63;;;9.45;;
35380;SDS011;21486;51.916;8.378;2024-01-10T03:44:23;26.08;;;10.52;;
35380;SDS011;21486;51.916;8.378;2024-01-10T03:46:48;20.13;;;10.00;;
35380;SDS011;21486;51.916;8.378;2024-01-10T03:49:14;22.30;;;9.98;;
35380;SDS011;21486;51.916;8.378;2024-01-10T03:51:39;20.13;;;9.65;;
35380;SDS011;21486;51.916;8.378;2024-01-10T03:54:05;27.85;;;9.68;;
35380;SDS011;21486;51.916;8.378;2024-01-10T03:56:31;17.73;;;8.75;;
35380;SDS011;21486;51.916;8.378;2024-01-10T03:58:56;21.85;;;10.57;;
35380;SDS011;21486;51.916;8.378;2024-01-10T04:01:22;20.90;;;9.77;;
35380;SDS011;21486;51.916;8.378;2024-01-10T04:03:48;19.92;;;9.05;;
35380;SDS011;21486;51.916;8.378;2024-01-10T04:06:14;21.70;;;8.32;;
35380;SDS011;21486;51.916;8.378;2024-01-10T04:08:40;23.05;;;10.85;;
35380;SDS011;21486;51.916;8.378;2024-01-10T04:11:05;23.42;;;10.05;;
35380;SDS011;21486;51.916;8.378;2024-01-10T04:13:31;33.30;;;9.90;;
35380;SDS011;21486;51.916;8.378;2024-01-10T04:15:56;21.73;;;8.80;;
35380;SDS011;21486;51.916;8.378;2024-01-10T04:18:22;23.65;;;10.75;;
35380;SDS011;21486;51.916;8.378;2024-01-10T04:20:47;23.98;;;10.07;;
35380;SDS011;21486;51.916;8.378;2024-01-10T04:23:14;25.85;;;9.73;;
35380;SDS011;21486;51.916;8.378;2024-01-10T04:25:39;22.65;;;10.38;;
35380;SDS011;21486;51.916;8.378;2024-01-10T04:28:05;22.05;;;10.15;;
35380;SDS011;21486;51.916;8.378;2024-01-10T04:30:31;21.50;;;10.65;;
35380;SDS011;21486;51.916;8.378;2024-01-10T04:32:57;24.38;;;10.25;;
35380;SDS011;21486;51.916;8.378;2024-01-10T04:35:22;21.77;;;9.48;;
35380;SDS011;21486;51.916;8.378;2024-01-10T04:37:48;22.83;;;9.23;;
35380;SDS011;21486;51.916;8.378;2024-01-10T04:40:13;26.08;;;10.05;;
35380;SDS011;21486;51.916;8.378;2024-01-10T04:42:39;26.20;;;10.48;;
35380;SDS011;21486;51.916;8.378;2024-01-10T04:45:05;21.60;;;11.02;;
35380;SDS011;21486;51.916;8.378;2024-01-10T04:47:32;14.68;;;9.07;;
35380;SDS011;21486;51.916;8.378;2024-01-10T04:49:57;20.35;;;9.85;;
35380;SDS011;21486;51.916;8.378;2024-01-10T04:52:23;35.38;;;10.90;;
35380;SDS011;21486;51.916;8.378;2024-01-10T04:54:48;28.00;;;10.75;;
35380;SDS011;21486;51.916;8.378;2024-01-10T04:57:14;23.40;;;10.25;;
35380;SDS011;21486;51.916;8.378;2024-01-10T04:59:40;21.70;;;10.18;;
35380;SDS011;21486;51.916;8.378;2024-01-10T05:02:06;24.40;;;10.35;;
35380;SDS011;21486;51.916;8.378;2024-01-10T05:04:32;24.55;;;11.13;;
35380;SDS011;21486;51.916;8.378;2024-01-10T05:06:58;21.27;;;10.13;;
35380;SDS011;21486;51.916;8.378;2024-01-10T05:09:23;30.40;;;10.85;;
35380;SDS011;21486;51.916;8.378;2024-01-10T05:11:49;25.77;;;10.40;;
35380;SDS011;21486;51.916;8.378;2024-01-10T05:14:16;26.42;;;10.65;;
35380;SDS011;21486;51.916;8.378;2024-01-10T05:16:44;19.75;;;9.93;;
35380;SDS011;21486;51.916;8.378;2024-01-10T05:19:10;24.73;;;10.05;;
35380;SDS011;21486;51.916;8.378;2024-01-10T05:21:35;24.23;;;9.98;;
35380;SDS011;21486;51.916;8.378;2024-01-10T05:24:01;25.08;;;10.75;;
35380;SDS011;21486;51.916;8.378;2024-01-10T05:26:27;21.55;;;10.25;;
35380;SDS011;21486;51.916;8.378;2024-01-10T05:28:52;24.13;;;11.50;;
35380;SDS011;21486;51.916;8.378;2024-01-10T05:31:18;22.23;;;8.93;;
35380;SDS011;21486;51.916;8.378;2024-01-10T05:33:43;21.85;;;10.88;;
35380;SDS011;21486;51.916;8.378;2024-01-10T05:36:09;29.92;;;11.30;;
35380;SDS011;21486;51.916;8.378;2024-01-10T05:38:38;36.05;;;11.45;;
35380;SDS011;21486;51.916;8.378;2024-01-10T05:41:05;23.38;;;10.90;;
35380;SDS011;21486;51.916;8.378;2024-01-10T05:43:30;24.13;;;10.27;;
35380;SDS011;21486;51.916;8.378;2024-01-10T05:45:56;25.10;;;10.75;;
35380;SDS011;21486;51.916;8.378;2024-01-10T05:48:22;22.17;;;11.43;;
35380;SDS011;21486;51.916;8.378;2024-01-10T05:50:47;21.58;;;11.63;;
35380;SDS011;21486;51.916;8.378;2024-01-10T05:53:13;24.27;;;10.13;;
35380;SDS011;21486;51.916;8.378;2024-01-10T05:55:41;23.65;;;9.95;;
35380;SDS011;21486;51.916;8.378;2024-01-10T05:58:08;24.90;;;10.48;;
35380;SDS011;21486;51.916;8.378;2024-01-10T06:00:34;20.63;;;9.77;;
35380;SDS011;21486;51.916;8.378;2024-01-10T06:03:00;32.47;;;12.18;;
35380;SDS011;21486;51.916;8.378;2024-01-10T06:05:25;30.95;;;12.35;;
35380;SDS011;21486;51.916;8.378;2024-01-10T06:07:51;23.35;;;10.65;;
35380;SDS011;21486;51.916;8.378;2024-01-10T06:10:16;22.20;;;10.38;;
35380;SDS011;21486;51.916;8.378;2024-01-10T06:12:42;29.08;;;10.98;;
35380;SDS011;21486;51.916;8.378;2024-01-10T06:15:07;28.80;;;10.68;;
35380;SDS011;21486;51.916;8.378;2024-01-10T06:17:33;28.60;;;11.20;;
35380;SDS011;21486;51.916;8.378;2024-01-10T06:19:59;23.05;;;11.40;;
35380;SDS011;21486;51.916;8.378;2024-01-10T06:22:25;23.98;;;10.25;;
35380;SDS011;21486;51.916;8.378;2024-01-10T06:24:51;22.90;;;11.10;;
35380;SDS011;21486;51.916;8.378;2024-01-10T06:27:17;23.02;;;11.40;;
35380;SDS011;21486;51.916;8.378;2024-01-10T06:29:43;25.88;;;11.30;;
35380;SDS011;21486;51.916;8.378;2024-01-10T06:32:10;35.55;;;12.15;;
35380;SDS011;21486;51.916;8.378;2024-01-10T06:34:36;29.02;;;11.10;;
35380;SDS011;21486;51.916;8.378;2024-01-10T06:37:01;33.65;;;10.07;;
35380;SDS011;21486;51.916;8.378;2024-01-10T06:39:27;33.00;;;12.60;;
35380;SDS011;21486;51.916;8.378;2024-01-10T06:41:52;24.63;;;11.63;;
35380;SDS011;21486;51.916;8.378;2024-01-10T06:44:18;33.80;;;11.50;;
35380;SDS011;21486;51.916;8.378;2024-01-10T06:46:43;33.17;;;12.20;;
35380;SDS011;21486;51.916;8.378;2024-01-10T06:49:09;32.53;;;12.50;;
35380;SDS011;21486;51.916;8.378;2024-01-10T06:51:35;31.20;;;12.00;;
35380;SDS011;21486;51.916;8.378;2024-01-10T06:54:01;39.17;;;12.00;;
35380;SDS011;21486;51.916;8.378;2024-01-10T06:56:30;24.50;;;11.48;;
35380;SDS011;21486;51.916;8.378;2024-01-10T06:58:56;31.20;;;12.02;;
35380;SDS011;21486;51.916;8.378;2024-01-10T07:01:22;29.73;;;11.73;;
35380;SDS011;21486;51.916;8.378;2024-01-10T07:03:48;32.40;;;13.05;;
35380;SDS011;21486;51.916;8.378;2024-01-10T07:06:14;21.77;;;11.10;;
35380;SDS011;21486;51.916;8.378;2024-01-10T07:08:40;30.38;;;12.25;;
35380;SDS011;21486;51.916;8.378;2024-01-10T07:11:07;33.63;;;11.52;;
35380;SDS011;21486;51.916;8.378;2024-01-10T07:13:33;31.10;;;11.52;;
35380;SDS011;21486;51.916;8.378;2024-01-10T07:15:58;30.52;;;12.57;;
35380;SDS011;21486;51.916;8.378;2024-01-10T07:18:26;27.08;;;12.15;;
35380;SDS011;21486;51.916;8.378;2024-01-10T07:20:58;35.95;;;12.52;;
35380;SDS011;21486;51.916;8.378;2024-01-10T07:23:24;31.15;;;12.25;;
35380;SDS011;21486;51.916;8.378;2024-01-10T07:25:50;28.20;;;11.90;;
35380;SDS011;21486;51.916;8.378;2024-01-10T07:28:16;27.83;;;11.63;;
35380;SDS011;21486;51.916;8.378;2024-01-10T07:30:42;26.23;;;11.98;;
35380;SDS011;21486;51.916;8.378;2024-01-10T07:33:09;24.17;;;12.80;;
35380;SDS011;21486;51.916;8.378;2024-01-10T07:35:35;32.85;;;13.23;;
35380;SDS011;21486;51.916;8.378;2024-01-10T07:38:01;31.10;;;13.25;;
35380;SDS011;21486;51.916;8.378;2024-01-10T07:40:26;33.67;;;12.90;;
35380;SDS011;21486;51.916;8.378;2024-01-10T07:42:52;29.55;;;12.73;;
35380;SDS011;21486;51.916;8.378;2024-01-10T07:45:17;25.95;;;11.40;;
35380;SDS011;21486;51.916;8.378;2024-01-10T07:47:43;29.92;;;12.60;;
35380;SDS011;21486;51.916;8.378;2024-01-10T07:50:09;27.88;;;12.75;;
35380;SDS011;21486;51.916;8.378;2024-01-10T07:52:39;31.05;;;13.88;;
35380;SDS011;21486;51.916;8.378;2024-01-10T07:55:05;38.47;;;13.82;;
35380;SDS011;21486;51.916;8.378;2024-01-10T07:57:31;31.05;;;11.68;;
35380;SDS011;21486;51.916;8.378;2024-01-10T07:59:58;38.75;;;14.05;;
35380;SDS011;21486;51.916;8.378;2024-01-10T08:02:24;35.10;;;13.90;;
35380;SDS011;21486;51.916;8.378;2024-01-10T08:04:49;33.72;;;13.82;;
35380;SDS011;21486;51.916;8.378;2024-01-10T08:07:16;26.75;;;12.55;;
35380;SDS011;21486;51.916;8.378;2024-01-10T08:09:41;32.22;;;13.65;;
35380;SDS011;21486;51.916;8.378;2024-01-10T08:12:07;34.53;;;13.02;;
35380;SDS011;21486;51.916;8.378;2024-01-10T08:14:32;29.13;;;14.48;;
35380;SDS011;21486;51.916;8.378;2024-01-10T08:16:58;36.60;;;13.35;;
35380;SDS011;21486;51.916;8.378;2024-01-10T08:19:25;30.17;;;14.77;;
35380;SDS011;21486;51.916;8.378;2024-01-10T08:21:51;33.17;;;13.50;;
35380;SDS011;21486;51.916;8.378;2024-01-10T08:24:18;45.22;;;15.40;;
35380;SDS011;21486;51.916;8.378;2024-01-10T08:26:47;25.63;;;12.45;;
35380;SDS011;21486;51.916;8.378;2024-01-10T08:29:20;44.92;;;14.63;;
35380;SDS011;21486;51.916;8.378;2024-01-10T08:31:46;38.15;;;14.73;;
35380;SDS011;21486;51.916;8.378;2024-01-10T08:34:12;37.30;;;14.65;;
35380;SDS011;21486;51.916;8.378;2024-01-10T08:36:38;40.33;;;15.05;;
35380;SDS011;21486;51.916;8.378;2024-01-10T08:39:04;43.88;;;15.65;;
35380;SDS011;21486;51.916;8.378;2024-01-10T08:41:29;37.67;;;14.88;;
35380;SDS011;21486;51.916;8.378;2024-01-10T08:43:55;38.60;;;14.70;;
35380;SDS011;21486;51.916;8.378;2024-01-10T08:46:22;32.72;;;13.30;;
35380;SDS011;21486;51.916;8.378;2024-01-10T08:48:49;37.90;;;13.98;;
35380;SDS011;21486;51.916;8.378;2024-01-10T08:51:15;35.88;;;14.85;;
35380;SDS011;21486;51.916;8.378;2024-01-10T08:53:42;39.58;;;14.43;;
35380;SDS011;21486;51.916;8.378;2024-01-10T08:56:08;32.70;;;14.65;;
35380;SDS011;21486;51.916;8.378;2024-01-10T08:58:35;33.60;;;13.77;;
35380;SDS011;21486;51.916;8.378;2024-01-10T09:01:00;38.60;;;15.68;;
35380;SDS011;21486;51.916;8.378;2024-01-10T09:03:26;47.25;;;14.85;;
35380;SDS011;21486;51.916;8.378;2024-01-10T09:05:51;35.80;;;13.50;;
35380;SDS011;21486;51.916;8.378;2024-01-10T09:22:50;37.13;;;13.50;;
35380;SDS011;21486;51.916;8.378;2024-01-10T09:25:16;32.85;;;12.98;;
35380;SDS011;21486;51.916;8.378;2024-01-10T09:30:10;31.73;;;11.82;;
35380;SDS011;21486;51.916;8.378;2024-01-10T09:32:36;32.00;;;11.80;;
35380;SDS011;21486;51.916;8.378;2024-01-10T09:35:02;30.15;;;12.50;;
35380;SDS011;21486;51.916;8.378;2024-01-10T09:37:28;28.08;;;11.93;;
35380;SDS011;21486;51.916;8.378;2024-01-10T09:49:40;32.28;;;11.68;;
35380;SDS011;21486;51.916;8.378;2024-01-10T09:52:05;28.30;;;11.25;;
35380;SDS011;21486;51.916;8.378;2024-01-10T09:54:34;32.63;;;13.45;;
35380;SDS011;21486;51.916;8.378;2024-01-10T09:57:04;35.95;;;12.20;;
35380;SDS011;21486;51.916;8.378;2024-01-10T09:59:30;30.98;;;12.05;;
35380;SDS011;21486;51.916;8.378;2024-01-10T10:01:56;27.95;;;11.65;;
35380;SDS011;21486;51.916;8.378;2024-01-10T10:04:23;31.35;;;13.73;;
35380;SDS011;21486;51.916;8.378;2024-01-10T10:06:58;27.77;;;12.68;;
35380;SDS011;21486;51.916;8.378;2024-01-10T10:09:26;33.47;;;12.05;;
35380;SDS011;21486;51.916;8.378;2024-01-10T10:11:54;28.58;;;11.73;;
35380;SDS011;21486;51.916;8.378;2024-01-10T10:31:23;26.88;;;9.77;;
35380;SDS011;21486;51.916;8.378;2024-01-10T10:33:49;23.27;;;10.50;;
35380;SDS011;21486;51.916;8.378;2024-01-10T10:36:16;31.45;;;12.52;;
35380;SDS011;21486;51.916;8.378;2024-01-10T10:38:41;31.42;;;11.90;;
35380;SDS011;21486;51.916;8.378;2024-01-10T10:41:07;37.53;;;11.55;;
35380;SDS011;21486;51.916;8.378;2024-01-10T10:43:35;29.15;;;10.82;;
35380;SDS011;21486;51.916;8.378;2024-01-10T10:46:02;28.60;;;11.45;;
35380;SDS011;21486;51.916;8.378;2024-01-10T10:48:33;26.02;;;10.80;;
35380;SDS011;21486;51.916;8.378;2024-01-10T10:51:03;32.72;;;11.77;;
35380;SDS011;21486;51.916;8.378;2024-01-10T10:53:34;26.67;;;11.18;;
35380;SDS011;21486;51.916;8.378;2024-01-10T10:56:04;30.42;;;11.35;;
35380;SDS011;21486;51.916;8.378;2024-01-10T10:58:49;23.92;;;10.98;;
35380;SDS011;21486;51.916;8.378;2024-01-10T11:03:41;24.45;;;9.75;;
35380;SDS011;21486;51.916;8.378;2024-01-10T11:33:51;32.45;;;10.98;;
35380;SDS011;21486;51.916;8.378;2024-01-10T11:36:18;28.85;;;11.20;;
35380;SDS011;21486;51.916;8.378;2024-01-10T11:39:00;31.38;;;11.88;;
35380;SDS011;21486;51.916;8.378;2024-01-10T11:41:30;32.55;;;11.93;;
35380;SDS011;21486;51.916;8.378;2024-01-10T11:46:38;27.08;;;11.65;;
35380;SDS011;21486;51.916;8.378;2024-01-10T11:49:07;23.95;;;11.13;;
35380;SDS011;21486;51.916;8.378;2024-01-10T11:51:47;26.33;;;10.80;;
35380;SDS011;21486;51.916;8.378;2024-01-10T11:54:59;27.73;;;12.20;;
